Emmons, Minnesota
Current Conditions -  °F | °C
As of 12:31 PM on Sunday 21 Dec 2014 (Local Time) from KAEL Reporting Station
Haze Haze  
Wind Chill: 27°   Ceiling: 400
Heat Index: 36°   Visibility: 0.75mi
Dew Point: 36°   Wind: 14mph
Humidity: 100%   Direction: 170°S
Pressure: 29.79"   Gusts: 20mph
Location:  43.5°N, 93.49°W
Report Text: KAEL 211831Z AUTO 17012G17KT 3/4SM BR OVC004 02/02 A2979 RMK AO2
Loading
Personal Weather Stations






























Interactive Weather Map New forecast layout! Learn more

10-Day Weather Forecast

Advertisements
Track Severe Weather on mobile